Time;durP1;ratioP1;P1;durP2;ratioP2;P2;SDS_P1;SDS_P2;PMS_P1;PMS_P2;Temp;Humidity;BMP_temperature;BMP_pressure;BME280_temperature;BME280_humidity;BME280_pressure;Samples;Min_cycle;Max_cycle;Signal;HPM_P1;HPM_P2
2022/10/23 00:00:28;;;;;;;17.60;9.18;;;9.30;99.90;;;;;;5018984;28;20085;-66
2022/10/23 00:02:53;;;;;;;17.67;9.90;;;9.30;99.90;;;;;;5002621;28;20067;-66
2022/10/23 00:05:20;;;;;;;15.60;9.02;;;9.30;99.90;;;;;;5037702;28;20041;-67
2022/10/23 00:07:54;;;;;;;17.75;10.05;;;9.30;99.90;;;;;;5022128;28;20060;-66
2022/10/23 00:10:20;;;;;;;13.18;9.32;;;9.20;99.90;;;;;;5018995;28;20053;-66
2022/10/23 00:12:47;;;;;;;13.75;9.18;;;9.20;99.90;;;;;;5022570;28;20136;-66
2022/10/23 00:15:14;;;;;;;14.25;9.30;;;9.20;99.90;;;;;;5045134;28;20094;-66
2022/10/23 00:17:40;;;;;;;19.88;10.77;;;9.20;99.90;;;;;;5026933;28;20140;-66
2022/10/23 00:20:07;;;;;;;16.35;9.95;;;9.20;99.90;;;;;;5041613;28;20048;-66
2022/10/23 00:22:33;;;;;;;17.50;11.25;;;9.20;99.90;;;;;;5048813;28;20096;-66
2022/10/23 00:24:58;;;;;;;21.08;10.85;;;9.30;99.90;;;;;;5044382;28;20140;-66
2022/10/23 00:27:25;;;;;;;33.60;15.07;;;9.30;99.90;;;;;;5026870;28;20127;-66
2022/10/23 00:29:50;;;;;;;27.27;13.65;;;9.30;99.90;;;;;;5045829;28;20476;-66
2022/10/23 00:32:16;;;;;;;24.85;14.75;;;9.40;99.90;;;;;;5021444;28;20064;-66
2022/10/23 00:34:41;;;;;;;30.63;15.02;;;9.50;99.90;;;;;;5018938;28;20171;-66
2022/10/23 00:37:07;;;;;;;29.90;14.88;;;9.50;99.90;;;;;;5046374;28;20137;-66
2022/10/23 00:39:33;;;;;;;35.17;15.35;;;9.50;99.90;;;;;;5028439;28;20052;-66
2022/10/23 00:41:59;;;;;;;30.30;15.25;;;9.60;99.90;;;;;;5045708;28;20452;-67
2022/10/23 00:44:24;;;;;;;33.15;15.23;;;9.50;99.90;;;;;;5025526;28;20045;-66
2022/10/23 00:46:50;;;;;;;27.73;15.50;;;9.50;99.90;;;;;;5039943;28;20116;-66
2022/10/23 00:49:16;;;;;;;22.15;15.20;;;9.50;99.90;;;;;;5048562;28;20102;-66
2022/10/23 00:51:55;;;;;;;25.95;13.88;;;9.50;99.90;;;;;;5048374;28;20403;-66
2022/10/23 00:54:26;;;;;;;33.42;14.15;;;9.50;99.90;;;;;;5027203;28;20048;-66
2022/10/23 00:56:56;;;;;;;25.80;15.20;;;9.50;99.90;;;;;;5024076;28;20045;-66
2022/10/23 00:59:22;;;;;;;;;;;9.50;99.90;;;;;;5024019;28;20048;-67
2022/10/23 01:01:47;;;;;;;96.28;17.38;;;9.50;99.90;;;;;;5036732;28;19939;-66
2022/10/23 01:04:13;;;;;;;31.70;13.88;;;9.40;99.90;;;;;;5022110;28;20128;-66
2022/10/23 01:07:04;;;;;;;27.38;13.93;;;9.40;99.90;;;;;;5028375;28;20177;-66
2022/10/23 01:09:57;;;;;;;20.80;13.60;;;9.40;99.90;;;;;;5028023;28;20571;-67
2022/10/23 01:12:43;;;;;;;17.48;11.85;;;9.40;99.90;;;;;;5010752;28;20040;-66
2022/10/23 01:15:15;;;;;;;29.63;13.30;;;9.40;99.90;;;;;;5036729;28;20045;-66
2022/10/23 01:17:48;;;;;;;25.30;14.88;;;9.30;99.90;;;;;;5021171;28;20049;-66
2022/10/23 01:20:30;;;;;;;28.02;14.32;;;9.30;99.90;;;;;;5029744;28;20187;-66
2022/10/23 01:23:12;;;;;;;30.17;13.52;;;9.40;99.90;;;;;;5015351;28;20041;-66
2022/10/23 01:26:14;;;;;;;31.98;13.52;;;9.40;99.90;;;;;;5041591;28;20193;-66
2022/10/23 01:28:45;;;;;;;18.98;12.73;;;9.40;99.90;;;;;;5042013;28;20041;-66
2022/10/23 01:31:17;;;;;;;23.40;13.13;;;9.30;99.90;;;;;;5022756;28;20055;-66
2022/10/23 01:33:57;;;;;;;19.92;13.77;;;9.30;99.90;;;;;;5021348;28;20108;-66
2022/10/23 01:36:26;;;;;;;18.20;12.32;;;9.30;99.90;;;;;;5025406;28;20118;-66
2022/10/23 01:39:01;;;;;;;16.33;10.25;;;9.30;99.90;;;;;;4993997;28;20033;-66
2022/10/23 01:42:14;;;;;;;14.85;10.35;;;9.30;99.90;;;;;;5029975;28;20123;-66
2022/10/23 01:44:53;;;;;;;17.17;9.85;;;9.30;99.90;;;;;;4982071;28;20046;-66
2022/10/23 01:47:23;;;;;;;22.05;10.25;;;9.20;99.90;;;;;;4997859;28;20526;-66
2022/10/23 01:49:51;;;;;;;27.80;11.13;;;9.20;99.90;;;;;;5008985;28;20056;-66
2022/10/23 01:52:18;;;;;;;15.80;9.82;;;9.20;99.90;;;;;;5043154;28;20486;-66
2022/10/23 01:54:47;;;;;;;12.98;9.60;;;9.30;99.90;;;;;;5042702;28;20124;-66
2022/10/23 01:57:15;;;;;;;16.50;10.70;;;9.30;99.90;;;;;;5020347;28;20049;-66
2022/10/23 01:59:56;;;;;;;16.65;10.02;;;9.30;99.90;;;;;;5043354;28;20074;-66
2022/10/23 02:02:25;;;;;;;19.15;10.18;;;9.30;99.90;;;;;;5040289;28;20528;-66
2022/10/23 02:05:06;;;;;;;18.23;10.95;;;9.30;99.90;;;;;;5024262;28;20124;-66
2022/10/23 02:07:33;;;;;;;14.32;10.75;;;9.40;99.90;;;;;;5039890;28;20113;-67
2022/10/23 02:09:59;;;;;;;15.75;11.20;;;9.50;99.90;;;;;;5046043;28;20049;-66
2022/10/23 02:12:52;;;;;;;17.92;12.05;;;9.50;99.90;;;;;;5022919;28;20158;-66
2022/10/23 02:15:28;;;;;;;16.73;12.00;;;9.50;99.90;;;;;;5023281;28;20045;-66
2022/10/23 02:18:19;;;;;;;16.35;11.38;;;9.60;99.90;;;;;;5023147;28;20032;-66
2022/10/23 02:20:55;;;;;;;25.92;14.65;;;9.60;99.90;;;;;;5028178;28;20199;-66
2022/10/23 02:23:39;;;;;;;24.73;15.02;;;9.70;99.90;;;;;;5021195;28;20037;-66
2022/10/23 02:26:13;;;;;;;25.95;15.27;;;9.80;99.90;;;;;;5023464;28;20512;-66
2022/10/23 02:28:44;;;;;;;27.58;16.52;;;9.90;99.90;;;;;;5004193;28;20370;-67
2022/10/23 02:31:14;;;;;;;24.17;14.43;;;9.90;99.90;;;;;;5004972;28;20044;-67
2022/10/23 02:33:40;;;;;;;27.33;15.38;;;9.90;99.90;;;;;;5022606;28;20074;-66
2022/10/23 02:36:06;;;;;;;26.83;16.75;;;9.90;99.90;;;;;;5025440;28;20052;-67
2022/10/23 02:38:40;;;;;;;27.77;15.82;;;9.90;99.90;;;;;;5022685;28;20055;-67
2022/10/23 02:41:23;;;;;;;30.88;16.55;;;9.90;99.90;;;;;;5012697;28;20428;-66
2022/10/23 02:43:52;;;;;;;30.23;16.40;;;9.90;99.90;;;;;;5020668;28;20738;-67
2022/10/23 02:46:24;;;;;;;29.48;17.35;;;9.90;99.90;;;;;;5021122;28;20638;-66
2022/10/23 02:49:09;;;;;;;33.97;17.98;;;10.00;99.90;;;;;;5022828;28;20071;-66
2022/10/23 02:51:51;;;;;;;29.52;16.63;;;10.10;99.90;;;;;;5042372;28;20048;-67
2022/10/23 02:54:54;;;;;;;30.77;17.52;;;10.10;99.90;;;;;;5042013;28;20055;-67
2022/10/23 02:57:51;;;;;;;29.85;18.60;;;10.20;99.90;;;;;;5017308;28;20118;-66
2022/10/23 03:00:19;;;;;;;36.92;18.88;;;10.20;99.90;;;;;;5019086;28;20068;-67
2022/10/23 03:02:53;;;;;;;34.72;18.33;;;10.10;99.90;;;;;;5038664;28;20037;-67
2022/10/23 03:05:22;;;;;;;37.35;18.15;;;10.10;99.90;;;;;;5022201;28;20090;-66
2022/10/23 03:07:48;;;;;;;31.30;18.53;;;10.10;99.90;;;;;;5039723;28;20499;-66
2022/10/23 03:10:14;;;;;;;38.03;19.75;;;10.10;99.90;;;;;;5035830;28;20410;-67
2022/10/23 03:12:40;;;;;;;32.15;17.65;;;10.10;99.90;;;;;;5037484;28;20045;-66
2022/10/23 03:15:07;;;;;;;35.83;19.20;;;10.10;99.90;;;;;;5040683;28;20075;-67
2022/10/23 03:17:32;;;;;;;31.80;17.40;;;10.10;99.90;;;;;;5041865;28;20072;-67
2022/10/23 03:19:58;;;;;;;37.38;18.30;;;10.00;99.90;;;;;;5009306;28;20064;-66
2022/10/23 03:22:23;;;;;;;35.60;18.77;;;10.00;99.90;;;;;;5044648;28;20048;-67
2022/10/23 03:24:49;;;;;;;40.30;18.38;;;10.00;99.90;;;;;;5040914;28;20025;-67
2022/10/23 03:27:15;;;;;;;40.05;19.40;;;10.00;99.90;;;;;;5023011;28;20102;-67
2022/10/23 03:29:41;;;;;;;35.58;18.73;;;10.00;99.90;;;;;;5024749;28;20041;-68
2022/10/23 03:32:06;;;;;;;37.13;18.73;;;10.00;99.90;;;;;;5019438;28;20049;-66
2022/10/23 03:34:33;;;;;;;34.88;18.27;;;10.00;99.90;;;;;;5041755;28;20338;-66
2022/10/23 03:36:59;;;;;;;32.42;17.00;;;10.00;99.90;;;;;;5018818;28;20478;-67
2022/10/23 03:39:25;;;;;;;37.60;17.50;;;9.90;99.90;;;;;;5014512;28;20068;-65
2022/10/23 03:41:50;;;;;;;29.25;16.08;;;9.90;99.90;;;;;;5038515;28;20138;-64
2022/10/23 03:44:17;;;;;;;28.88;17.10;;;9.90;99.90;;;;;;5018897;28;20025;-64
2022/10/23 03:46:42;;;;;;;29.67;16.13;;;9.90;99.90;;;;;;5023146;28;20084;-66
2022/10/23 03:49:08;;;;;;;31.05;15.98;;;9.90;99.90;;;;;;5022351;28;20087;-67
2022/10/23 03:51:33;;;;;;;33.22;15.25;;;9.80;99.90;;;;;;5006656;28;20135;-66
2022/10/23 03:53:59;;;;;;;24.27;14.27;;;9.80;99.90;;;;;;5015496;28;20790;-66
2022/10/23 03:56:25;;;;;;;24.40;13.90;;;9.70;99.90;;;;;;5024005;28;20041;-67
2022/10/23 03:58:50;;;;;;;29.27;14.93;;;9.70;99.90;;;;;;5041278;28;20094;-67
2022/10/23 04:01:16;;;;;;;22.80;13.57;;;9.70;99.90;;;;;;5012838;28;20799;-66
2022/10/23 04:03:41;;;;;;;25.48;14.63;;;9.60;99.90;;;;;;5032203;28;20047;-67
2022/10/23 04:06:07;;;;;;;25.67;14.27;;;9.60;99.90;;;;;;5018893;28;20090;-66
2022/10/23 04:08:33;;;;;;;26.52;15.30;;;9.60;99.90;;;;;;5015607;28;20106;-67
2022/10/23 04:10:58;;;;;;;23.17;13.80;;;9.60;99.90;;;;;;5041516;28;20452;-66
2022/10/23 04:13:24;;;;;;;30.02;14.35;;;9.60;99.90;;;;;;5024644;28;20516;-67
2022/10/23 04:15:51;;;;;;;23.42;13.93;;;9.60;99.90;;;;;;5024495;28;20135;-67
2022/10/23 04:18:17;;;;;;;26.30;14.10;;;9.50;99.90;;;;;;5039219;28;20033;-67
2022/10/23 04:20:43;;;;;;;25.63;15.10;;;9.50;99.90;;;;;;5026180;28;20069;-66
2022/10/23 04:23:08;;;;;;;28.67;15.07;;;9.60;99.90;;;;;;5040065;28;20463;-66
2022/10/23 04:25:34;;;;;;;26.20;14.38;;;9.50;99.90;;;;;;5046379;28;20057;-66
2022/10/23 04:28:00;;;;;;;25.35;15.02;;;9.60;99.90;;;;;;5027557;28;20119;-66
2022/10/23 04:30:25;;;;;;;25.63;15.20;;;9.60;99.90;;;;;;5028994;28;20047;-66
2022/10/23 04:32:51;;;;;;;29.77;15.90;;;9.50;99.90;;;;;;5041274;28;20041;-66
2022/10/23 04:35:18;;;;;;;29.00;15.18;;;9.60;99.90;;;;;;5031443;28;20128;-66
2022/10/23 04:37:44;;;;;;;28.15;14.43;;;9.50;99.90;;;;;;5029553;28;20061;-66
2022/10/23 04:40:10;;;;;;;24.40;15.30;;;9.50;99.90;;;;;;5010541;28;20106;-66
2022/10/23 04:42:35;;;;;;;30.65;16.02;;;9.50;99.90;;;;;;5029051;28;20041;-66
2022/10/23 04:45:01;;;;;;;33.85;17.10;;;9.50;99.90;;;;;;5028063;28;20037;-66
2022/10/23 04:47:26;;;;;;;27.95;15.77;;;9.50;99.90;;;;;;5027391;28;20452;-66
2022/10/23 04:49:52;;;;;;;33.63;16.92;;;9.50;99.90;;;;;;5026819;28;20029;-67
2022/10/23 04:52:18;;;;;;;30.25;16.92;;;9.50;99.90;;;;;;5043920;28;20116;-67
2022/10/23 04:54:43;;;;;;;31.40;17.67;;;9.50;99.90;;;;;;4996388;28;20071;-67
2022/10/23 04:57:09;;;;;;;32.75;18.00;;;9.50;99.90;;;;;;5024360;28;20471;-66
2022/10/23 04:59:34;;;;;;;40.25;19.50;;;9.50;99.90;;;;;;5046343;28;20573;-66
2022/10/23 05:02:00;;;;;;;37.30;17.98;;;9.50;99.90;;;;;;5025820;28;20121;-66
2022/10/23 05:04:25;;;;;;;30.52;17.45;;;9.50;99.90;;;;;;5043091;28;20037;-66
2022/10/23 05:06:51;;;;;;;36.47;18.63;;;9.50;99.90;;;;;;5027335;28;20580;-66
2022/10/23 05:09:16;;;;;;;35.47;18.08;;;9.50;99.90;;;;;;5021707;28;20045;-67
2022/10/23 05:11:42;;;;;;;35.78;18.30;;;9.50;99.90;;;;;;5018840;28;20064;-66
2022/10/23 05:14:08;;;;;;;38.95;19.05;;;9.50;99.90;;;;;;5029429;28;20124;-67
2022/10/23 05:16:41;;;;;;;32.30;17.75;;;9.50;99.90;;;;;;5020806;28;20053;-66
2022/10/23 05:19:12;;;;;;;34.30;18.00;;;9.50;99.90;;;;;;5007332;28;20036;-67
2022/10/23 05:21:39;;;;;;;33.35;16.23;;;9.40;99.90;;;;;;5041685;28;20029;-66
2022/10/23 05:24:05;;;;;;;30.13;16.55;;;9.40;99.90;;;;;;5030072;28;20050;-68
2022/10/23 05:26:31;;;;;;;23.45;14.95;;;9.40;99.90;;;;;;5045075;28;20159;-66
2022/10/23 05:28:57;;;;;;;32.83;17.58;;;9.30;99.90;;;;;;5050645;28;20112;-66
2022/10/23 05:31:24;;;;;;;28.20;15.35;;;9.30;99.90;;;;;;5030442;28;20149;-66
2022/10/23 05:33:51;;;;;;;28.50;16.45;;;9.30;99.90;;;;;;5036149;28;20052;-66
2022/10/23 05:36:17;;;;;;;32.70;16.80;;;9.30;99.90;;;;;;5028915;28;20041;-66
2022/10/23 05:38:44;;;;;;;25.77;15.35;;;9.30;99.90;;;;;;5027588;28;20029;-66
2022/10/23 05:41:10;;;;;;;32.63;15.52;;;9.30;99.90;;;;;;5023137;28;20075;-66
2022/10/23 05:43:35;;;;;;;34.63;15.45;;;9.30;99.90;;;;;;5025251;28;20049;-66
2022/10/23 05:46:04;;;;;;;29.95;14.60;;;9.20;99.90;;;;;;5027387;28;20136;-66
2022/10/23 05:48:31;;;;;;;33.33;15.20;;;9.20;99.90;;;;;;5020830;28;20045;-67
2022/10/23 05:51:02;;;;;;;44.30;15.32;;;9.20;99.90;;;;;;5042095;28;20047;-66
2022/10/23 05:53:27;;;;;;;30.15;16.95;;;9.20;99.90;;;;;;5044703;28;20044;-66
2022/10/23 05:55:53;;;;;;;29.67;16.77;;;9.20;99.90;;;;;;5026267;28;20575;-66
2022/10/23 05:58:18;;;;;;;30.73;15.88;;;9.20;99.90;;;;;;5011703;28;20441;-66
2022/10/23 06:00:44;;;;;;;31.50;16.50;;;9.20;99.90;;;;;;5027377;28;20051;-66
2022/10/23 06:03:09;;;;;;;35.15;17.98;;;9.20;99.90;;;;;;5019447;28;20111;-66
2022/10/23 06:05:35;;;;;;;28.17;16.98;;;9.20;99.90;;;;;;5030145;28;20165;-66
2022/10/23 06:08:00;;;;;;;29.08;16.98;;;9.20;99.90;;;;;;5037024;28;20370;-64
2022/10/23 06:10:26;;;;;;;38.78;18.92;;;9.30;99.90;;;;;;5040403;28;20032;-64
2022/10/23 06:12:52;;;;;;;31.45;17.35;;;9.30;99.90;;;;;;5024406;28;20037;-64
2022/10/23 06:15:18;;;;;;;36.47;19.58;;;9.40;99.90;;;;;;5036523;28;20045;-64
2022/10/23 06:17:43;;;;;;;39.35;18.27;;;9.40;99.90;;;;;;5053913;28;20024;-64
2022/10/23 06:20:09;;;;;;;32.97;18.25;;;9.40;99.90;;;;;;5027363;28;20095;-64
2022/10/23 06:22:35;;;;;;;33.53;17.52;;;9.40;99.90;;;;;;5017557;28;20354;-63
2022/10/23 06:25:00;;;;;;;33.60;18.75;;;9.40;99.90;;;;;;5040592;28;20036;-64
2022/10/23 06:27:26;;;;;;;30.73;17.55;;;9.40;99.90;;;;;;5053249;28;20029;-64
2022/10/23 06:29:51;;;;;;;32.75;17.77;;;9.40;99.90;;;;;;5020446;28;20135;-65
2022/10/23 06:32:17;;;;;;;33.47;18.80;;;9.30;99.90;;;;;;5018577;28;20784;-65
2022/10/23 06:34:43;;;;;;;33.85;17.77;;;9.40;99.90;;;;;;5027524;28;20097;-64
2022/10/23 06:37:08;;;;;;;36.08;17.90;;;9.40;99.90;;;;;;5026790;28;20040;-65
2022/10/23 06:39:35;;;;;;;34.70;19.05;;;9.40;99.90;;;;;;5014202;28;20525;-65
2022/10/23 06:42:01;;;;;;;33.45;18.83;;;9.40;99.90;;;;;;5026984;28;20067;-65
2022/10/23 06:44:27;;;;;;;39.22;19.25;;;9.50;99.90;;;;;;5038835;28;20037;-65
2022/10/23 06:46:52;;;;;;;37.67;18.30;;;9.50;99.90;;;;;;5027538;28;20044;-65
2022/10/23 06:49:18;;;;;;;35.17;18.63;;;9.50;99.90;;;;;;5020467;28;20391;-64
2022/10/23 06:51:43;;;;;;;36.90;19.20;;;9.60;99.90;;;;;;5049314;28;20116;-64
2022/10/23 06:54:10;;;;;;;40.67;19.75;;;9.60;99.90;;;;;;5050237;28;20033;-64
2022/10/23 06:56:36;;;;;;;36.92;18.85;;;9.70;99.90;;;;;;5045698;28;20075;-64
2022/10/23 06:59:02;;;;;;;38.45;18.92;;;9.70;99.90;;;;;;5012222;28;20096;-64
2022/10/23 07:01:27;;;;;;;38.10;19.48;;;9.80;99.90;;;;;;5017305;28;20067;-64
2022/10/23 07:03:53;;;;;;;31.67;18.15;;;9.80;99.90;;;;;;5043383;28;20029;-64
2022/10/23 07:06:18;;;;;;;36.50;19.00;;;9.80;99.90;;;;;;5028503;28;20076;-64
2022/10/23 07:08:44;;;;;;;34.22;19.25;;;9.80;99.90;;;;;;5030448;28;20045;-64
2022/10/23 07:11:11;;;;;;;32.13;17.23;;;9.80;99.90;;;;;;5026134;28;20045;-64
2022/10/23 07:13:38;;;;;;;34.47;17.90;;;9.90;99.90;;;;;;5011758;28;20324;-65
2022/10/23 07:16:30;;;;;;;37.88;18.70;;;9.90;99.90;;;;;;5038648;28;20037;-64
2022/10/23 07:18:59;;;;;;;34.70;18.98;;;9.90;99.90;;;;;;5039415;28;20572;-64
2022/10/23 07:21:27;;;;;;;37.78;18.70;;;9.90;99.90;;;;;;5037225;28;20041;-64
2022/10/23 07:23:52;;;;;;;35.00;17.35;;;9.90;99.90;;;;;;5047882;28;20037;-64
2022/10/23 07:26:18;;;;;;;33.33;17.40;;;10.00;99.90;;;;;;5033349;28;20048;-64
2022/10/23 07:28:46;;;;;;;31.98;18.15;;;10.00;99.90;;;;;;5039098;28;20142;-64
2022/10/23 07:31:12;;;;;;;31.90;17.52;;;10.00;99.90;;;;;;5025948;28;20047;-65
2022/10/23 07:33:38;;;;;;;37.53;19.05;;;10.10;99.90;;;;;;5026754;28;20432;-64
2022/10/23 07:36:06;;;;;;;31.73;18.38;;;10.10;99.90;;;;;;5026373;28;20049;-64
2022/10/23 07:38:31;;;;;;;30.63;16.80;;;10.10;99.90;;;;;;5029715;28;20445;-65
2022/10/23 07:40:58;;;;;;;36.65;17.63;;;10.20;99.90;;;;;;5014898;28;20079;-65
2022/10/23 07:43:24;;;;;;;34.35;17.10;;;10.20;99.90;;;;;;5008885;28;20124;-64
2022/10/23 07:45:51;;;;;;;30.23;16.95;;;10.20;99.90;;;;;;5016050;28;20041;-64
2022/10/23 07:48:17;;;;;;;27.75;16.85;;;10.30;99.90;;;;;;5037880;28;20041;-64
2022/10/23 07:50:43;;;;;;;35.15;16.80;;;10.30;99.90;;;;;;5045440;28;20038;-63
2022/10/23 07:53:18;;;;;;;35.28;16.70;;;10.40;99.90;;;;;;5016565;28;20052;-64
2022/10/23 07:55:53;;;;;;;31.02;17.17;;;10.40;99.90;;;;;;5047573;28;20087;-64
2022/10/23 07:58:19;;;;;;;31.23;15.65;;;10.40;99.90;;;;;;5049632;28;20071;-64
2022/10/23 08:00:51;;;;;;;27.50;15.43;;;10.50;99.90;;;;;;5048298;28;20541;-64
2022/10/23 08:03:17;;;;;;;30.48;16.65;;;10.50;99.90;;;;;;5030107;28;20052;-64
2022/10/23 08:05:43;;;;;;;32.33;16.50;;;10.60;99.90;;;;;;5025282;28;20049;-64
2022/10/23 08:08:08;;;;;;;34.08;15.45;;;10.60;99.90;;;;;;5012016;28;20049;-64
2022/10/23 08:10:35;;;;;;;28.42;16.13;;;10.70;99.90;;;;;;5004807;28;20464;-64
2022/10/23 08:13:00;;;;;;;26.67;14.95;;;10.70;99.90;;;;;;5047305;28;20051;-65
2022/10/23 08:15:26;;;;;;;33.38;16.55;;;10.80;99.90;;;;;;5048871;28;20511;-64
2022/10/23 08:17:51;;;;;;;30.05;15.38;;;10.90;99.90;;;;;;5030560;28;20064;-64
2022/10/23 08:20:17;;;;;;;25.10;14.55;;;10.90;99.90;;;;;;5050833;28;20110;-64
2022/10/23 08:22:42;;;;;;;30.48;15.82;;;11.00;99.90;;;;;;5049202;28;20326;-64
2022/10/23 08:25:08;;;;;;;29.65;14.80;;;11.10;99.90;;;;;;5052254;28;20072;-64
2022/10/23 08:27:34;;;;;;;25.08;14.43;;;11.10;99.90;;;;;;5029104;28;20437;-64
2022/10/23 08:29:59;;;;;;;28.42;14.90;;;11.20;99.90;;;;;;5038837;28;20045;-65
2022/10/23 08:32:29;;;;;;;25.02;14.77;;;11.30;99.90;;;;;;5014286;28;20120;-65
2022/10/23 08:34:54;;;;;;;27.42;14.77;;;11.40;99.90;;;;;;5050258;28;20099;-64
2022/10/23 08:37:20;;;;;;;23.55;13.75;;;11.50;99.90;;;;;;5032053;28;20395;-63
2022/10/23 08:39:45;;;;;;;24.15;13.75;;;11.60;99.90;;;;;;5048921;28;20140;-64
2022/10/23 08:42:20;;;;;;;23.48;13.88;;;11.60;99.90;;;;;;5031238;28;20041;-64
2022/10/23 08:44:56;;;;;;;26.15;14.85;;;11.70;99.90;;;;;;5032274;28;20049;-64
2022/10/23 08:47:28;;;;;;;25.50;14.35;;;11.80;99.90;;;;;;5031535;28;20045;-64
2022/10/23 08:50:09;;;;;;;24.92;14.02;;;11.90;99.90;;;;;;5014801;28;20059;-65
2022/10/23 08:53:04;;;;;;;23.73;14.35;;;12.00;99.90;;;;;;5033613;28;20037;-64
2022/10/23 08:55:37;;;;;;;28.00;14.13;;;12.10;99.90;;;;;;5050932;28;20120;-65
2022/10/23 08:58:14;;;;;;;21.65;12.93;;;12.20;99.90;;;;;;5048721;28;20041;-63
2022/10/23 09:00:41;;;;;;;24.42;13.40;;;12.20;99.90;;;;;;5030878;28;20151;-65
2022/10/23 09:03:10;;;;;;;23.52;12.32;;;12.30;99.90;;;;;;5026962;28;20072;-65
2022/10/23 09:05:43;;;;;;;19.88;11.52;;;12.40;99.90;;;;;;5015699;28;20028;-65
2022/10/23 09:08:32;;;;;;;27.20;13.20;;;12.40;99.90;;;;;;5031950;28;20052;-64
2022/10/23 09:11:07;;;;;;;23.33;11.85;;;12.50;99.90;;;;;;5032560;28;20159;-65
2022/10/23 09:13:39;;;;;;;21.73;11.80;;;12.60;99.90;;;;;;5014757;28;20036;-65
2022/10/23 09:16:48;;;;;;;18.30;11.38;;;12.60;99.90;;;;;;5031917;28;20052;-64
2022/10/23 09:19:19;;;;;;;21.00;10.48;;;12.70;99.90;;;;;;5012174;28;20041;-65
2022/10/23 09:21:48;;;;;;;18.67;9.90;;;12.70;99.90;;;;;;5044533;28;20037;-66
2022/10/23 09:24:19;;;;;;;17.23;10.15;;;12.80;99.90;;;;;;5049116;28;20050;-66
2022/10/23 09:26:48;;;;;;;18.02;10.00;;;12.80;99.90;;;;;;5031657;28;20131;-64
2022/10/23 09:29:37;;;;;;;19.60;10.80;;;12.90;99.90;;;;;;5050631;28;20047;-68
2022/10/23 09:32:04;;;;;;;20.08;10.00;;;13.00;99.90;;;;;;5046584;28;20128;-65
2022/10/23 09:34:33;;;;;;;13.60;8.98;;;13.10;99.90;;;;;;5016587;28;20097;-66
2022/10/23 09:37:22;;;;;;;18.77;9.63;;;13.10;99.90;;;;;;5024128;28;20049;-66
2022/10/23 09:39:48;;;;;;;17.60;9.23;;;13.20;99.90;;;;;;5018245;28;20084;-65
2022/10/23 09:42:22;;;;;;;19.25;10.23;;;13.30;99.90;;;;;;5026559;28;20077;-65
2022/10/23 09:44:51;;;;;;;15.05;9.13;;;13.40;99.90;;;;;;5025735;28;20040;-65
2022/10/23 09:47:23;;;;;;;15.15;9.07;;;13.50;99.90;;;;;;5024622;28;20053;-65
2022/10/23 09:49:56;;;;;;;14.40;9.25;;;13.60;99.90;;;;;;5022070;28;20073;-65
2022/10/23 09:52:39;;;;;;;15.90;9.23;;;13.60;99.90;;;;;;5029059;28;20053;-66
2022/10/23 09:55:22;;;;;;;20.15;9.68;;;13.70;99.90;;;;;;5029860;28;20042;-65
2022/10/23 09:57:48;;;;;;;13.98;8.30;;;13.80;99.90;;;;;;5027965;28;20040;-65
2022/10/23 10:00:20;;;;;;;13.98;9.13;;;13.90;99.90;;;;;;5028217;28;20798;-65
2022/10/23 10:02:56;;;;;;;20.83;8.45;;;13.90;99.90;;;;;;5028418;28;20134;-65
2022/10/23 10:05:26;;;;;;;16.48;8.52;;;13.90;99.90;;;;;;5010296;28;20362;-64
2022/10/23 10:08:02;;;;;;;17.20;8.50;;;14.00;99.90;;;;;;5017599;28;20045;-65
2022/10/23 10:10:35;;;;;;;13.27;7.88;;;14.10;99.90;;;;;;5029831;28;20037;-65
2022/10/23 10:13:18;;;;;;;13.45;7.40;;;14.20;99.90;;;;;;5025940;28;20068;-65
2022/10/23 10:15:51;;;;;;;16.35;7.43;;;14.30;99.90;;;;;;5022711;28;20045;-65
2022/10/23 10:18:23;;;;;;;12.38;7.60;;;14.50;99.90;;;;;;5009879;28;20065;-65
2022/10/23 10:20:54;;;;;;;11.20;7.22;;;14.60;99.90;;;;;;5012414;28;20041;-66
2022/10/23 10:23:44;;;;;;;10.93;6.93;;;14.70;99.90;;;;;;5023617;28;20041;-66
2022/10/23 10:26:46;;;;;;;13.77;6.70;;;14.70;99.90;;;;;;5011323;28;20496;-66
2022/10/23 10:29:35;;;;;;;11.45;5.75;;;14.80;99.90;;;;;;5018120;28;20052;-65
2022/10/23 10:32:26;;;;;;;12.68;6.30;;;14.80;99.90;;;;;;5025068;28;20095;-65
2022/10/23 10:35:11;;;;;;;10.18;6.32;;;14.80;99.90;;;;;;5030007;28;20112;-66
2022/10/23 10:38:07;;;;;;;9.00;6.22;;;14.80;99.90;;;;;;5044399;28;20813;-64
2022/10/23 10:40:55;;;;;;;9.75;6.25;;;14.90;99.90;;;;;;5027488;28;20029;-64
2022/10/23 10:43:57;;;;;;;11.82;6.20;;;15.10;99.90;;;;;;5023347;28;20084;-66
2022/10/23 10:46:38;;;;;;;10.88;6.47;;;15.20;99.90;;;;;;5010800;28;20063;-66
2022/10/23 10:49:30;;;;;;;10.23;5.78;;;15.20;99.90;;;;;;5029160;28;20036;-65
2022/10/23 10:52:22;;;;;;;12.65;6.78;;;15.20;99.90;;;;;;5031981;28;20061;-66
2022/10/23 10:55:20;;;;;;;8.52;6.32;;;15.20;99.90;;;;;;5050151;28;20045;-65
2022/10/23 10:58:14;;;;;;;7.05;5.28;;;15.20;99.90;;;;;;5030287;28;20099;-66
2022/10/23 11:00:40;;;;;;;10.43;5.90;;;15.30;99.90;;;;;;5049259;28;20088;-67
2022/10/23 11:03:29;;;;;;;10.82;5.40;;;15.30;99.90;;;;;;5027856;28;20087;-65
2022/10/23 11:05:57;;;;;;;10.00;5.60;;;15.30;99.90;;;;;;5031664;28;20086;-65
2022/10/23 11:08:35;;;;;;;9.38;6.30;;;15.40;99.90;;;;;;5028614;28;20128;-67
2022/10/23 11:11:11;;;;;;;11.70;6.00;;;15.40;99.90;;;;;;5030614;28;20123;-66
2022/10/23 11:13:39;;;;;;;10.85;5.88;;;15.40;99.90;;;;;;5014090;28;20119;-66
2022/10/23 11:16:18;;;;;;;12.10;6.50;;;15.50;99.90;;;;;;5028605;28;20047;-66
2022/10/23 11:19:08;;;;;;;11.80;5.82;;;15.50;99.90;;;;;;5027610;28;20064;-66
2022/10/23 11:21:43;;;;;;;13.45;5.90;;;15.50;99.90;;;;;;5007186;28;20132;-66
2022/10/23 11:24:21;;;;;;;10.10;5.40;;;15.60;99.90;;;;;;5030407;28;20045;-66
2022/10/23 11:27:25;;;;;;;8.80;5.85;;;15.60;99.90;;;;;;5025515;28;20142;-65
2022/10/23 11:29:58;;;;;;;10.65;5.22;;;15.60;99.90;;;;;;5012934;28;20057;-65
2022/10/23 11:32:50;;;;;;;8.38;4.93;;;15.60;99.90;;;;;;5029479;28;20106;-65
2022/10/23 11:35:54;;;;;;;11.50;5.32;;;15.50;99.90;;;;;;5048699;28;20083;-66
2022/10/23 11:38:32;;;;;;;11.15;5.68;;;15.60;99.90;;;;;;5022085;28;20418;-65
2022/10/23 11:41:01;;;;;;;8.35;5.57;;;15.50;99.90;;;;;;5028531;28;20068;-65
2022/10/23 11:43:30;;;;;;;10.18;5.05;;;15.50;99.90;;;;;;5025431;28;20043;-65
2022/10/23 11:45:56;;;;;;;12.13;5.80;;;15.50;99.90;;;;;;5012851;28;20040;-66
2022/10/23 11:48:36;;;;;;;11.80;5.28;;;15.50;99.90;;;;;;5027169;28;20072;-66
2022/10/23 11:51:03;;;;;;;8.57;4.70;;;15.50;99.90;;;;;;5024867;28;20608;-66
2022/10/23 11:53:31;;;;;;;9.27;4.88;;;15.50;99.90;;;;;;5048236;28;20095;-67
2022/10/23 11:56:01;;;;;;;8.93;4.70;;;15.50;99.90;;;;;;5031262;28;20379;-65
2022/10/23 11:58:45;;;;;;;9.27;5.35;;;15.60;99.90;;;;;;5027590;28;20148;-66
2022/10/23 12:01:27;;;;;;;8.85;5.05;;;15.60;99.90;;;;;;5047477;28;20052;-65
2022/10/23 12:04:13;;;;;;;7.22;4.05;;;15.50;99.90;;;;;;5047246;28;20044;-67
2022/10/23 12:06:52;;;;;;;10.30;4.60;;;15.50;99.90;;;;;;5029907;28;20399;-66
2022/10/23 12:09:50;;;;;;;10.73;4.55;;;15.50;99.90;;;;;;5028742;28;20083;-66
2022/10/23 12:12:41;;;;;;;8.32;4.63;;;15.60;99.90;;;;;;5045919;28;20049;-66
2022/10/23 12:15:17;;;;;;;7.72;4.45;;;15.60;99.90;;;;;;5029084;28;20045;-65
2022/10/23 12:17:44;;;;;;;8.00;4.57;;;15.60;99.90;;;;;;5027288;28;20041;-66
2022/10/23 12:20:10;;;;;;;9.48;4.35;;;15.70;99.90;;;;;;5029837;28;20037;-67
2022/10/23 12:22:38;;;;;;;9.93;4.18;;;15.70;99.90;;;;;;5031368;28;20101;-66
2022/10/23 12:25:18;;;;;;;9.70;4.40;;;15.70;99.90;;;;;;5027635;28;20049;-66
2022/10/23 12:28:03;;;;;;;10.13;4.47;;;15.80;99.90;;;;;;5045791;28;20136;-66
2022/10/23 12:30:41;;;;;;;10.18;4.47;;;15.80;99.90;;;;;;5011383;28;20047;-68
2022/10/23 12:33:17;;;;;;;11.60;4.43;;;15.90;99.90;;;;;;5013357;28;20117;-67
2022/10/23 12:36:04;;;;;;;12.25;4.28;;;15.90;99.90;;;;;;5048413;28;20114;-66
2022/10/23 12:38:30;;;;;;;11.82;4.55;;;15.90;99.90;;;;;;5031348;28;20667;-66
2022/10/23 12:41:03;;;;;;;8.80;4.32;;;16.00;99.90;;;;;;5046086;28;20036;-66
2022/10/23 12:43:35;;;;;;;8.57;4.00;;;16.00;99.90;;;;;;5029122;28;20452;-66
2022/10/23 12:46:14;;;;;;;6.95;3.95;;;16.10;99.90;;;;;;5028834;28;20047;-65
2022/10/23 12:48:51;;;;;;;7.07;3.80;;;16.10;99.90;;;;;;5030668;28;20099;-67
2022/10/23 12:51:25;;;;;;;8.57;4.15;;;16.10;99.90;;;;;;5050618;28;20037;-66
2022/10/23 12:53:51;;;;;;;7.30;4.30;;;16.10;99.90;;;;;;5031045;28;20048;-66
2022/10/23 12:56:17;;;;;;;8.75;3.85;;;16.20;99.90;;;;;;5031732;28;20063;-66
2022/10/23 12:58:54;;;;;;;6.13;3.65;;;16.20;99.90;;;;;;5030980;28;20109;-66